createdAt,value
2022-09-12T00:00:19.901Z,95.72
2022-09-12T00:01:20.804Z,95.62
2022-09-12T00:02:21.654Z,95.62
2022-09-12T00:03:22.542Z,95.52
2022-09-12T00:04:23.417Z,95.62
2022-09-12T00:05:24.300Z,95.72
2022-09-12T00:06:25.186Z,95.72
2022-09-12T00:07:26.062Z,95.72
2022-09-12T00:08:26.975Z,95.72
2022-09-12T00:09:27.837Z,95.72
2022-09-12T00:10:28.713Z,95.72
2022-09-12T00:11:29.586Z,95.31
2022-09-12T00:12:30.460Z,95.10
2022-09-12T00:13:31.349Z,95.01
2022-09-12T00:14:32.221Z,95.10
2022-09-12T00:15:33.106Z,95.21
2022-09-12T00:16:34.085Z,95.25
2022-09-12T00:17:34.954Z,94.95
2022-09-12T00:18:35.834Z,94.80
2022-09-12T00:19:36.723Z,94.74
2022-09-12T00:20:37.606Z,94.64
2022-09-12T00:21:38.492Z,94.74
2022-09-12T00:22:39.366Z,94.84
2022-09-12T00:23:40.272Z,94.95
2022-09-12T00:24:41.176Z,95.15
2022-09-12T00:25:42.039Z,95.15
2022-09-12T00:26:42.914Z,95.25
2022-09-12T00:27:43.801Z,95.25
2022-09-12T00:28:44.841Z,95.25
2022-09-12T00:29:45.289Z,95.36
2022-09-12T00:30:46.195Z,95.25
2022-09-12T00:31:47.089Z,95.15
2022-09-12T00:32:47.927Z,95.20
2022-09-12T00:33:48.818Z,94.95
2022-09-12T00:34:49.701Z,94.89
2022-09-12T00:35:50.572Z,94.78
2022-09-12T00:36:51.446Z,94.58
2022-09-12T00:37:52.318Z,94.48
2022-09-12T00:38:53.218Z,94.68
2022-09-12T00:39:54.140Z,94.68
2022-09-12T00:40:54.974Z,94.78
2022-09-12T00:41:55.884Z,94.89
2022-09-12T00:42:56.765Z,94.78
2022-09-12T00:43:57.648Z,94.78
2022-09-12T00:44:58.526Z,94.89
2022-09-12T00:45:59.429Z,94.89
2022-09-12T00:47:00.296Z,94.78
2022-09-12T00:48:01.176Z,94.78
2022-09-12T00:49:02.055Z,94.99
2022-09-12T00:50:02.935Z,95.09
2022-09-12T00:51:03.863Z,94.68
2022-09-12T00:52:04.724Z,94.37
2022-09-12T00:53:05.600Z,94.27
2022-09-12T00:54:06.500Z,94.27
2022-09-12T00:55:07.356Z,94.42
2022-09-12T00:56:08.248Z,94.52
2022-09-12T00:57:09.170Z,94.73
2022-09-12T00:58:10.025Z,95.03
2022-09-12T00:59:10.903Z,95.24
2022-09-12T01:00:11.782Z,95.34
2022-09-12T01:01:12.754Z,95.55
2022-09-12T01:02:13.654Z,95.86
2022-09-12T01:03:14.557Z,96.17
2022-09-12T01:04:15.423Z,95.86
2022-09-12T01:05:16.290Z,95.45
2022-09-12T01:06:17.174Z,95.24
2022-09-12T01:07:18.094Z,95.24
2022-09-12T01:08:18.962Z,95.34
2022-09-12T01:09:19.855Z,95.45
2022-09-12T01:10:20.725Z,95.55
2022-09-12T01:11:21.601Z,95.75
2022-09-12T01:12:22.488Z,96.06
2022-09-12T01:13:23.374Z,96.27
2022-09-12T01:14:24.256Z,96.68
2022-09-12T01:15:25.133Z,97.09
2022-09-12T01:16:26.047Z,96.99
2022-09-12T01:17:26.912Z,96.99
2022-09-12T01:18:27.794Z,97.19
2022-09-12T01:19:28.667Z,97.30
2022-09-12T01:20:29.548Z,97.30
2022-09-12T01:21:30.424Z,96.99
2022-09-12T01:22:31.348Z,96.68
2022-09-12T01:23:32.215Z,96.27
2022-09-12T01:24:33.113Z,96.17
2022-09-12T01:25:33.970Z,96.27
2022-09-12T01:26:34.849Z,96.37
2022-09-12T01:27:35.744Z,96.58
2022-09-12T01:28:36.630Z,97.09
2022-09-12T01:29:37.504Z,97.40
2022-09-12T01:30:38.393Z,97.40
2022-09-12T01:31:39.263Z,97.50
2022-09-12T01:32:40.168Z,97.71
2022-09-12T01:33:41.044Z,97.91
2022-09-12T01:34:41.926Z,97.71
2022-09-12T01:35:42.804Z,97.50
2022-09-12T01:36:43.681Z,97.61
2022-09-12T01:37:44.583Z,97.40
2022-09-12T01:38:45.602Z,97.71
2022-09-12T01:39:46.017Z,98.33
2022-09-12T01:40:46.875Z,98.53
2022-09-12T01:41:47.736Z,98.53
2022-09-12T01:42:48.627Z,98.74
2022-09-12T01:43:49.510Z,98.63
2022-09-12T01:44:50.389Z,98.84
2022-09-12T01:45:51.311Z,98.94
2022-09-12T01:46:52.137Z,98.84
2022-09-12T01:47:53.038Z,98.74
2022-09-12T01:48:53.911Z,98.74
2022-09-12T01:49:54.783Z,98.84
2022-09-12T01:50:55.664Z,98.84
2022-09-12T01:51:56.540Z,98.74
2022-09-12T01:52:57.428Z,98.74
2022-09-12T01:53:58.331Z,98.74
2022-09-12T01:54:59.246Z,98.53
2022-09-12T01:56:00.111Z,98.33
2022-09-12T01:57:00.990Z,98.33
2022-09-12T01:58:01.870Z,98.22
2022-09-12T01:59:02.751Z,98.33
2022-09-12T02:00:03.626Z,98.33
2022-09-12T02:01:04.573Z,98.12
2022-09-12T02:02:05.466Z,98.12
2022-09-12T02:03:06.319Z,98.22
2022-09-12T02:04:07.203Z,98.33
2022-09-12T02:05:08.085Z,98.22
2022-09-12T02:06:08.959Z,98.33
2022-09-12T02:07:09.844Z,98.37
2022-09-12T02:08:10.774Z,98.37
2022-09-12T02:09:11.622Z,98.16
2022-09-12T02:10:12.512Z,98.06
2022-09-12T02:11:13.378Z,98.16
2022-09-12T02:12:14.253Z,98.16
2022-09-12T02:13:15.152Z,98.37
2022-09-12T02:14:16.036Z,98.88
2022-09-12T02:15:16.981Z,98.99
2022-09-12T02:16:17.842Z,98.79
2022-09-12T02:17:18.694Z,98.79
2022-09-12T02:18:19.594Z,98.88
2022-09-12T02:19:20.465Z,98.99
2022-09-12T02:20:44.453Z,98.99
2022-09-12T02:21:23.115Z,98.88
2022-09-12T02:22:22.989Z,98.79
2022-09-12T02:23:23.881Z,98.68
2022-09-12T02:24:24.776Z,98.88
2022-09-12T02:25:25.683Z,99.09
2022-09-12T02:26:26.548Z,99.19
2022-09-12T02:27:27.431Z,99.30
2022-09-12T02:28:28.324Z,99.40
2022-09-12T02:29:29.204Z,99.30
2022-09-12T02:30:30.154Z,99.30
2022-09-12T02:31:31.002Z,99.40
2022-09-12T02:32:31.880Z,99.40
2022-09-12T02:33:32.799Z,99.19
2022-09-12T02:34:33.695Z,98.88
2022-09-12T02:35:34.608Z,98.79
2022-09-12T02:36:35.476Z,98.88
2022-09-12T02:37:36.348Z,98.99
2022-09-12T02:38:37.260Z,99.09
2022-09-12T02:39:40.222Z,99.30
2022-09-12T02:40:39.915Z,99.09
2022-09-12T02:41:39.773Z,99.04
2022-09-12T02:42:40.648Z,98.93
2022-09-12T02:43:41.543Z,99.04
2022-09-12T02:44:42.418Z,99.04
2022-09-12T02:45:43.331Z,98.93
2022-09-12T02:46:44.185Z,99.04
2022-09-12T02:47:45.068Z,99.14
2022-09-12T02:48:46.095Z,99.24
2022-09-12T02:49:46.449Z,99.34
2022-09-12T02:50:47.325Z,99.34
2022-09-12T02:51:48.209Z,99.34
2022-09-12T02:52:49.095Z,99.65
2022-09-12T02:53:49.976Z,99.65
2022-09-12T02:54:50.850Z,99.55
2022-09-12T02:55:51.750Z,99.34
2022-09-12T02:56:52.604Z,99.44
2022-09-12T02:57:53.486Z,99.65
2022-09-12T02:58:54.383Z,99.65
2022-09-12T02:59:55.262Z,99.65
2022-09-12T03:00:56.148Z,99.76
2022-09-12T03:01:57.034Z,99.99
2022-09-12T03:02:57.883Z,99.99
2022-09-12T03:03:58.776Z,99.99
2022-09-12T03:04:59.672Z,99.99
2022-09-12T03:06:00.541Z,99.99
2022-09-12T03:07:01.423Z,99.99
2022-09-12T03:08:02.296Z,99.99
2022-09-12T03:09:03.185Z,99.99
2022-09-12T03:10:04.058Z,99.99
2022-09-12T03:11:04.961Z,99.99
2022-09-12T03:12:05.850Z,99.99
2022-09-12T03:13:06.718Z,99.99
2022-09-12T03:14:07.603Z,99.96
2022-09-12T03:15:08.487Z,99.76
2022-09-12T03:16:09.395Z,99.65
2022-09-12T03:17:10.259Z,99.76
2022-09-12T03:18:11.129Z,99.65
2022-09-12T03:19:12.032Z,99.86
2022-09-12T03:20:12.931Z,99.86
2022-09-12T03:21:13.841Z,99.76
2022-09-12T03:22:14.708Z,99.65
2022-09-12T03:23:15.593Z,99.55
2022-09-12T03:24:16.517Z,99.65
2022-09-12T03:25:17.424Z,99.76
2022-09-12T03:26:18.335Z,99.55
2022-09-12T03:27:19.198Z,99.55
2022-09-12T03:28:20.099Z,99.65
2022-09-12T03:29:20.978Z,99.65
2022-09-12T03:30:21.926Z,99.65
2022-09-12T03:31:22.763Z,99.65
2022-09-12T03:32:23.634Z,99.76
2022-09-12T03:33:24.521Z,99.86
2022-09-12T03:34:25.416Z,99.96
2022-09-12T03:35:26.290Z,99.99
2022-09-12T03:36:27.164Z,99.99
2022-09-12T03:37:28.044Z,99.99
2022-09-12T03:38:28.918Z,99.99
2022-09-12T03:39:29.807Z,99.96
2022-09-12T03:40:30.685Z,99.86
2022-09-12T03:41:31.581Z,99.55
2022-09-12T03:42:32.490Z,99.44
2022-09-12T03:43:33.338Z,99.44
2022-09-12T03:44:34.221Z,99.55
2022-09-12T03:45:35.158Z,99.55
2022-09-12T03:46:36.010Z,99.86
2022-09-12T03:47:36.881Z,99.65
2022-09-12T03:48:37.767Z,99.55
2022-09-12T03:49:38.667Z,99.55
2022-09-12T03:50:39.542Z,99.65
2022-09-12T03:51:40.440Z,99.55
2022-09-12T03:52:41.356Z,99.55
2022-09-12T03:53:42.209Z,99.55
2022-09-12T03:54:43.099Z,99.44
2022-09-12T03:55:43.986Z,99.44
2022-09-12T03:56:44.878Z,99.34
2022-09-12T03:57:45.740Z,99.65
2022-09-12T03:58:46.833Z,99.90
2022-09-12T03:59:47.240Z,99.90
2022-09-12T04:00:48.177Z,99.80
2022-09-12T04:01:49.029Z,99.70
2022-09-12T04:02:49.924Z,99.70
2022-09-12T04:03:50.788Z,99.80
2022-09-12T04:04:51.666Z,99.99
2022-09-12T04:05:52.561Z,99.90
2022-09-12T04:06:53.433Z,99.90
2022-09-12T04:07:54.312Z,99.80
2022-09-12T04:08:55.218Z,99.74
2022-09-12T04:09:56.076Z,99.74
2022-09-12T04:10:56.962Z,99.95
2022-09-12T04:11:57.855Z,99.95
2022-09-12T04:12:58.707Z,99.99
2022-09-12T04:13:59.589Z,99.99
2022-09-12T04:15:00.480Z,99.99
2022-09-12T04:16:01.355Z,99.99
2022-09-12T04:17:02.248Z,99.99
2022-09-12T04:18:05.990Z,99.99
2022-09-12T04:19:04.070Z,99.99
2022-09-12T04:20:04.962Z,99.99
2022-09-12T04:21:05.836Z,99.99
2022-09-12T04:22:06.718Z,99.99
2022-09-12T04:23:07.632Z,99.99
2022-09-12T04:24:08.484Z,99.99
2022-09-12T04:25:09.380Z,99.99
2022-09-12T04:26:10.260Z,99.99
2022-09-12T04:27:11.155Z,99.99
2022-09-12T04:28:11.972Z,99.99
2022-09-12T04:29:12.823Z,99.99
2022-09-12T04:30:13.640Z,99.99
2022-09-12T04:31:14.515Z,99.99
2022-09-12T04:32:15.398Z,99.99
2022-09-12T04:33:16.269Z,99.99
2022-09-12T04:34:17.150Z,99.99
2022-09-12T04:35:18.017Z,99.99
2022-09-12T04:36:18.828Z,99.99
2022-09-12T04:37:19.658Z,99.99
2022-09-12T04:38:20.542Z,99.99
2022-09-12T04:39:21.373Z,99.99
2022-09-12T04:40:22.199Z,99.99
2022-09-12T04:41:23.045Z,99.99
2022-09-12T04:42:23.876Z,99.99
2022-09-12T04:43:24.675Z,99.99
2022-09-12T04:44:25.504Z,99.99
2022-09-12T04:45:26.333Z,99.99
2022-09-12T04:46:27.150Z,99.99
2022-09-12T04:47:27.995Z,99.99
2022-09-12T04:48:28.802Z,99.99
2022-09-12T04:49:29.620Z,99.99
2022-09-12T04:50:30.459Z,99.99
2022-09-12T04:51:31.291Z,99.99
2022-09-12T04:52:32.117Z,99.99
2022-09-12T04:53:32.967Z,99.99
2022-09-12T04:54:33.766Z,99.99
2022-09-12T04:55:34.598Z,99.99
2022-09-12T04:56:35.423Z,99.99
2022-09-12T04:57:36.262Z,99.99
2022-09-12T04:58:37.070Z,99.99
2022-09-12T04:59:37.918Z,99.99
2022-09-12T05:00:38.737Z,99.99
2022-09-12T05:01:39.634Z,99.99
2022-09-12T05:02:40.404Z,99.99
2022-09-12T05:03:41.224Z,99.99
2022-09-12T05:04:42.052Z,99.99
2022-09-12T05:05:42.923Z,99.99
2022-09-12T05:06:43.717Z,99.99
2022-09-12T05:07:44.538Z,99.99
2022-09-12T05:08:45.450Z,99.99
2022-09-12T05:09:46.264Z,99.99
2022-09-12T05:10:47.092Z,99.99
2022-09-12T05:12:05.007Z,99.99
2022-09-12T05:12:49.647Z,99.99
2022-09-12T05:13:49.516Z,99.99
2022-09-12T05:14:50.284Z,99.99
2022-09-12T05:15:51.113Z,99.99
2022-09-12T05:16:52.030Z,99.99
2022-09-12T05:17:52.860Z,99.99
2022-09-12T05:18:53.688Z,99.99
2022-09-12T05:19:54.535Z,99.99
2022-09-12T05:20:55.415Z,99.99
2022-09-12T05:21:56.251Z,99.99
2022-09-12T05:22:57.037Z,99.99
2022-09-12T05:23:57.865Z,99.99
2022-09-12T05:24:58.767Z,99.99
2022-09-12T05:25:59.558Z,99.99
2022-09-12T05:27:00.387Z,99.99
2022-09-12T05:28:01.244Z,99.99
2022-09-12T05:29:02.046Z,99.99
2022-09-12T05:30:02.874Z,99.99
2022-09-12T05:31:03.745Z,99.99
2022-09-12T05:32:04.529Z,99.99
2022-09-12T05:33:05.405Z,99.99
2022-09-12T05:34:06.189Z,99.99
2022-09-12T05:35:07.027Z,99.99
2022-09-12T05:36:07.846Z,99.99
2022-09-12T05:37:08.675Z,99.99
2022-09-12T05:38:09.494Z,99.99
2022-09-12T05:39:10.371Z,99.99
2022-09-12T05:40:11.239Z,99.99
2022-09-12T05:41:16.945Z,99.99
2022-09-12T05:42:13.737Z,99.99
2022-09-12T05:43:13.575Z,99.99
2022-09-12T05:44:14.386Z,99.99
2022-09-12T05:45:15.213Z,99.99
2022-09-12T05:46:16.112Z,99.99
2022-09-12T05:47:16.903Z,99.99
2022-09-12T05:48:17.724Z,99.99
2022-09-12T05:49:18.565Z,99.99
2022-09-12T05:50:19.401Z,99.99
2022-09-12T05:51:20.235Z,99.99
2022-09-12T05:52:21.067Z,99.99
2022-09-12T05:53:21.886Z,99.99
2022-09-12T05:54:22.708Z,99.99
2022-09-12T05:55:23.543Z,99.99
2022-09-12T05:56:24.362Z,99.86
2022-09-12T05:57:25.191Z,99.65
2022-09-12T05:58:26.038Z,99.55
2022-09-12T05:59:26.853Z,99.44
2022-09-12T06:00:32.865Z,99.44
2022-09-12T06:01:29.475Z,99.44
2022-09-12T06:02:29.332Z,99.34
2022-09-12T06:03:30.133Z,99.34
2022-09-12T06:04:30.969Z,99.44
2022-09-12T06:05:31.807Z,99.44
2022-09-12T06:06:32.641Z,99.44
2022-09-12T06:07:33.461Z,99.34
2022-09-12T06:08:34.283Z,99.55
2022-09-12T06:09:35.116Z,99.65
2022-09-12T06:10:35.958Z,99.76
2022-09-12T06:11:36.779Z,99.86
2022-09-12T06:12:37.600Z,99.76
2022-09-12T06:13:38.446Z,99.90
2022-09-12T06:14:39.249Z,99.76
2022-09-12T06:15:40.101Z,99.80
2022-09-12T06:16:40.989Z,99.90
2022-09-12T06:17:41.766Z,99.90
2022-09-12T06:18:42.652Z,99.99
2022-09-12T06:19:43.414Z,99.99
2022-09-12T06:20:44.245Z,99.99
2022-09-12T06:21:45.080Z,99.99
2022-09-12T06:22:45.922Z,99.99
2022-09-12T06:23:46.758Z,99.99
2022-09-12T06:24:47.572Z,99.99
2022-09-12T06:25:48.412Z,99.99
2022-09-12T06:26:49.229Z,99.99
2022-09-12T06:27:50.062Z,99.99
2022-09-12T06:28:50.898Z,99.99
2022-09-12T06:29:51.708Z,99.99
2022-09-12T06:30:52.564Z,99.99
2022-09-12T06:31:53.371Z,99.99
2022-09-12T06:32:54.200Z,99.99
2022-09-12T06:33:55.031Z,99.99
2022-09-12T06:34:55.859Z,99.99
2022-09-12T06:35:56.712Z,99.99
2022-09-12T06:36:57.515Z,99.99
2022-09-12T06:37:58.339Z,99.99
2022-09-12T06:38:59.167Z,99.99
2022-09-12T06:40:00.005Z,99.99
2022-09-12T06:41:00.829Z,99.99
2022-09-12T06:42:01.653Z,99.87
2022-09-12T06:43:02.478Z,99.87
2022-09-12T06:44:03.325Z,99.46
2022-09-12T06:45:04.136Z,99.05
2022-09-12T06:46:05.009Z,99.25
2022-09-12T06:47:05.799Z,99.66
2022-09-12T06:48:06.644Z,99.77
2022-09-12T06:49:07.475Z,99.72
2022-09-12T06:50:08.292Z,99.51
2022-09-12T06:51:09.126Z,99.41
2022-09-12T06:52:09.953Z,98.96
2022-09-12T06:53:10.773Z,98.19
2022-09-12T06:54:11.601Z,97.42
2022-09-12T06:55:16.210Z,96.77
2022-09-12T06:56:14.146Z,95.49
2022-09-12T06:57:13.975Z,94.73
2022-09-12T06:58:14.805Z,93.92
2022-09-12T06:59:15.641Z,92.85
2022-09-12T07:00:16.440Z,91.95
2022-09-12T07:01:17.343Z,91.09
2022-09-12T07:02:18.165Z,89.41
2022-09-12T07:03:18.953Z,88.00
2022-09-12T07:04:19.787Z,88.37
2022-09-12T07:05:20.606Z,87.30
2022-09-12T07:06:21.434Z,84.61
2022-09-12T07:07:22.260Z,83.25
2022-09-12T07:08:23.085Z,82.90
2022-09-12T07:09:23.913Z,82.66
2022-09-12T07:10:24.815Z,81.10
2022-09-12T07:11:25.611Z,80.65
2022-09-12T07:12:26.452Z,77.70
2022-09-12T07:13:27.280Z,80.21
2022-09-12T07:14:28.127Z,79.25
2022-09-12T07:15:28.945Z,79.93
2022-09-12T07:16:30.324Z,77.56
2022-09-12T07:17:30.349Z,75.22
2022-09-12T07:18:31.176Z,74.78
2022-09-12T07:19:31.995Z,73.57
2022-09-12T07:20:32.824Z,74.88
2022-09-12T07:21:33.656Z,76.37
2022-09-12T07:22:34.495Z,73.93
2022-09-12T07:23:35.369Z,72.17
2022-09-12T07:24:36.215Z,72.78
2022-09-12T07:25:37.045Z,71.77
2022-09-12T07:26:37.876Z,72.28
2022-09-12T07:27:38.705Z,71.16
2022-09-12T07:28:39.523Z,72.24
2022-09-12T07:29:40.369Z,72.65
2022-09-12T07:30:41.287Z,72.52
2022-09-12T07:31:42.083Z,72.92
2022-09-12T07:32:42.903Z,69.85
2022-09-12T07:33:43.733Z,69.54
2022-09-12T07:34:44.550Z,70.65
2022-09-12T07:35:45.368Z,69.21
2022-09-12T07:36:46.198Z,69.51
2022-09-12T07:37:47.020Z,69.71
2022-09-12T07:38:47.985Z,67.79
2022-09-12T07:39:48.778Z,67.89
2022-09-12T07:40:49.582Z,67.99
2022-09-12T07:41:50.419Z,68.19
2022-09-12T07:42:51.256Z,67.59
2022-09-12T07:43:52.084Z,68.60
2022-09-12T07:44:52.925Z,68.80
2022-09-12T07:45:53.767Z,68.77
2022-09-12T07:46:54.576Z,68.87
2022-09-12T07:47:55.410Z,67.25
2022-09-12T07:48:56.232Z,66.75
2022-09-12T07:49:57.071Z,66.98
2022-09-12T07:50:57.888Z,68.10
2022-09-12T07:51:58.727Z,69.51
2022-09-12T07:52:59.595Z,67.79
2022-09-12T07:54:00.424Z,65.90
2022-09-12T07:55:01.251Z,68.02
2022-09-12T07:56:02.079Z,67.62
2022-09-12T07:57:02.942Z,67.62
2022-09-12T07:58:03.761Z,66.30
2022-09-12T07:59:04.582Z,67.82
2022-09-12T08:00:05.429Z,69.01
2022-09-12T08:01:06.269Z,67.59
2022-09-12T08:02:07.089Z,67.69
2022-09-12T08:03:07.909Z,67.35
2022-09-12T08:04:08.734Z,67.55
2022-09-12T08:05:09.555Z,66.55
2022-09-12T08:06:10.387Z,66.64
2022-09-12T08:07:11.223Z,66.82
2022-09-12T08:08:12.048Z,67.32
2022-09-12T08:09:12.882Z,66.72
2022-09-12T08:10:13.697Z,66.18
2022-09-12T08:11:14.515Z,65.47
2022-09-12T08:12:15.370Z,63.96
2022-09-12T08:13:16.192Z,65.04
2022-09-12T08:14:17.016Z,64.43
2022-09-12T08:15:17.852Z,66.15
2022-09-12T08:16:18.652Z,64.36
2022-09-12T08:17:19.481Z,64.56
2022-09-12T08:18:20.319Z,65.07
2022-09-12T08:19:21.117Z,66.01
2022-09-12T08:20:26.455Z,65.50
2022-09-12T08:21:23.660Z,67.22
2022-09-12T08:22:23.499Z,67.86
2022-09-12T08:23:24.328Z,68.57
2022-09-12T08:24:25.162Z,67.25
2022-09-12T08:25:25.999Z,65.73
2022-09-12T08:26:26.816Z,65.43
2022-09-12T08:27:27.646Z,67.35
2022-09-12T08:28:28.475Z,68.26
2022-09-12T08:29:29.296Z,68.97
2022-09-12T08:30:30.194Z,68.37
2022-09-12T08:31:31.002Z,67.35
2022-09-12T08:32:31.832Z,67.25
2022-09-12T08:33:32.651Z,67.05
2022-09-12T08:34:33.479Z,66.64
2022-09-12T08:35:34.303Z,67.49
2022-09-12T08:36:35.126Z,68.47
2022-09-12T08:37:35.966Z,68.70
2022-09-12T08:38:36.790Z,67.69
2022-09-12T08:39:37.687Z,67.49
2022-09-12T08:40:38.475Z,66.98
2022-09-12T08:41:39.302Z,67.05
2022-09-12T08:42:40.127Z,67.79
2022-09-12T08:43:40.964Z,67.39
2022-09-12T08:44:41.787Z,66.27
2022-09-12T08:45:42.633Z,67.29
2022-09-12T08:46:43.430Z,67.18
2022-09-12T08:47:44.270Z,67.29
2022-09-12T08:48:45.100Z,67.59
2022-09-12T08:49:45.936Z,67.49
2022-09-12T08:50:49.835Z,66.27
2022-09-12T08:51:47.410Z,68.60
2022-09-12T08:52:48.244Z,66.07
2022-09-12T08:53:49.076Z,65.90
2022-09-12T08:54:49.904Z,66.71
2022-09-12T08:55:50.740Z,66.41
2022-09-12T08:56:51.582Z,66.71
2022-09-12T08:57:52.413Z,67.72
2022-09-12T08:58:53.239Z,67.62
2022-09-12T08:59:54.072Z,67.89
2022-09-12T09:00:54.906Z,67.99
2022-09-12T09:01:55.775Z,67.08
2022-09-12T09:02:56.633Z,67.39
2022-09-12T09:03:57.424Z,68.50
2022-09-12T09:04:58.261Z,69.10
2022-09-12T09:05:59.087Z,68.26
2022-09-12T09:06:59.914Z,68.06
2022-09-12T09:08:00.749Z,68.77
2022-09-12T09:09:01.577Z,68.87
2022-09-12T09:10:02.394Z,67.63
2022-09-12T09:11:03.226Z,65.40
2022-09-12T09:12:04.047Z,66.41
2022-09-12T09:13:04.883Z,66.31
2022-09-12T09:14:05.720Z,66.61
2022-09-12T09:15:06.533Z,64.49
2022-09-12T09:16:07.421Z,64.73
2022-09-12T09:17:08.238Z,64.02
2022-09-12T09:18:09.065Z,65.73
2022-09-12T09:19:09.888Z,66.04
2022-09-12T09:20:10.710Z,63.61
2022-09-12T09:21:11.537Z,62.90
2022-09-12T09:22:12.369Z,65.03
2022-09-12T09:23:13.199Z,65.03
2022-09-12T09:24:14.027Z,65.43
2022-09-12T09:25:14.853Z,65.23
2022-09-12T09:26:15.679Z,65.64
2022-09-12T09:27:39.245Z,63.28
2022-09-12T09:28:18.247Z,63.01
2022-09-12T09:29:18.080Z,63.21
2022-09-12T09:30:19.045Z,63.10
2022-09-12T09:31:19.879Z,62.70
2022-09-12T09:32:20.661Z,62.90
2022-09-12T09:33:21.512Z,63.01
2022-09-12T09:34:22.327Z,61.69
2022-09-12T09:35:23.165Z,62.90
2022-09-12T09:36:24.005Z,64.02
2022-09-12T09:37:24.820Z,64.42
2022-09-12T09:38:25.649Z,63.41
2022-09-12T09:39:26.487Z,62.30
2022-09-12T09:40:27.313Z,64.02
2022-09-12T09:41:28.139Z,64.29
2022-09-12T09:42:28.957Z,62.67
2022-09-12T09:43:29.806Z,63.38
2022-09-12T09:44:30.620Z,64.90
2022-09-12T09:45:31.457Z,64.46
2022-09-12T09:46:32.373Z,64.36
2022-09-12T09:47:33.201Z,60.93
2022-09-12T09:48:34.032Z,60.60
2022-09-12T09:49:34.855Z,60.60
2022-09-12T09:50:35.687Z,59.99
2022-09-12T09:51:36.522Z,61.91
2022-09-12T09:52:37.331Z,62.01
2022-09-12T09:53:38.174Z,61.20
2022-09-12T09:54:39.003Z,59.45
2022-09-12T09:55:39.828Z,56.63
2022-09-12T09:56:40.656Z,57.74
2022-09-12T09:57:41.497Z,58.04
2022-09-12T09:58:42.355Z,58.54
2022-09-12T09:59:43.146Z,59.45
2022-09-12T10:00:43.971Z,59.86
2022-09-12T10:01:44.906Z,59.35
2022-09-12T10:02:45.721Z,58.22
2022-09-12T10:03:46.623Z,58.12
2022-09-12T10:04:47.484Z,59.22
2022-09-12T10:05:48.312Z,58.49
2022-09-12T10:06:49.148Z,57.68
2022-09-12T10:07:49.972Z,57.89
2022-09-12T10:08:50.815Z,56.57
2022-09-12T10:09:51.734Z,55.84
2022-09-12T10:10:52.533Z,56.85
2022-09-12T10:11:53.353Z,56.24
2022-09-12T10:12:54.177Z,55.44
2022-09-12T10:13:55.013Z,55.84
2022-09-12T10:14:55.834Z,54.33
2022-09-12T10:15:56.745Z,55.84
2022-09-12T10:16:57.540Z,53.92
2022-09-12T10:17:58.363Z,55.34
2022-09-12T10:18:59.190Z,51.81
2022-09-12T10:20:17.840Z,53.42
2022-09-12T10:21:01.733Z,53.92
2022-09-12T10:22:01.553Z,54.71
2022-09-12T10:23:02.379Z,54.21
2022-09-12T10:24:03.209Z,55.31
2022-09-12T10:25:04.038Z,54.30
2022-09-12T10:26:04.874Z,54.61
2022-09-12T10:27:05.700Z,55.62
2022-09-12T10:28:06.532Z,56.32
2022-09-12T10:29:07.375Z,56.52
2022-09-12T10:30:08.206Z,56.42
2022-09-12T10:31:09.069Z,56.42
2022-09-12T10:32:09.867Z,56.92
2022-09-12T10:33:10.668Z,57.12
2022-09-12T10:34:11.512Z,55.82
2022-09-12T10:35:12.341Z,56.32
2022-09-12T10:36:13.166Z,57.12
2022-09-12T10:37:13.987Z,56.70
2022-09-12T10:38:14.825Z,57.53
2022-09-12T10:39:15.665Z,57.43
2022-09-12T10:40:16.535Z,57.70
2022-09-12T10:41:17.309Z,59.52
2022-09-12T10:42:22.835Z,60.22
2022-09-12T10:43:19.851Z,59.52
2022-09-12T10:44:19.701Z,59.72
2022-09-12T10:45:20.545Z,59.72
2022-09-12T10:46:21.448Z,58.61
2022-09-12T10:47:22.241Z,59.52
2022-09-12T10:48:23.052Z,59.22
2022-09-12T10:49:23.890Z,60.32
2022-09-12T10:50:24.718Z,60.02
2022-09-12T10:51:25.548Z,60.42
2022-09-12T10:52:26.383Z,60.32
2022-09-12T10:53:31.029Z,60.83
2022-09-12T10:54:28.927Z,61.33
2022-09-12T10:55:28.768Z,62.24
2022-09-12T10:56:29.597Z,62.34
2022-09-12T10:57:30.449Z,61.93
2022-09-12T10:58:31.284Z,60.72
2022-09-12T10:59:32.102Z,61.03
2022-09-12T11:00:32.936Z,60.63
2022-09-12T11:01:33.826Z,60.83
2022-09-12T11:02:34.765Z,60.32
2022-09-12T11:03:35.634Z,58.91
2022-09-12T11:04:36.401Z,59.22
2022-09-12T11:05:37.223Z,59.42
2022-09-12T11:06:38.055Z,59.11
2022-09-12T11:07:38.878Z,58.91
2022-09-12T11:08:39.707Z,59.42
2022-09-12T11:09:40.568Z,58.71
2022-09-12T11:10:44.295Z,59.01
2022-09-12T11:11:42.321Z,57.60
2022-09-12T11:12:43.146Z,57.40
2022-09-12T11:13:43.970Z,56.70
2022-09-12T11:14:44.809Z,57.90
2022-09-12T11:15:45.679Z,58.21
2022-09-12T11:16:46.473Z,56.87
2022-09-12T11:17:47.321Z,56.27
2022-09-12T11:18:48.127Z,56.97
2022-09-12T11:19:48.965Z,55.96
2022-09-12T11:20:49.801Z,57.28
2022-09-12T11:21:50.623Z,57.98
2022-09-12T11:22:51.453Z,56.47
2022-09-12T11:23:52.280Z,56.27
2022-09-12T11:24:53.122Z,56.37
2022-09-12T11:25:53.947Z,56.27
2022-09-12T11:26:54.777Z,55.96
2022-09-12T11:27:55.603Z,56.07
2022-09-12T11:28:56.429Z,57.28
2022-09-12T11:29:57.264Z,56.07
2022-09-12T11:30:58.109Z,55.76
2022-09-12T11:31:58.908Z,56.77
2022-09-12T11:32:59.750Z,57.35
2022-09-12T11:34:00.566Z,55.63
2022-09-12T11:35:01.409Z,55.13
2022-09-12T11:36:02.226Z,54.93
2022-09-12T11:37:05.502Z,55.13
2022-09-12T11:38:04.757Z,55.43
2022-09-12T11:39:04.590Z,56.44
2022-09-12T11:40:05.493Z,55.33
2022-09-12T11:41:06.266Z,56.74
2022-09-12T11:42:07.095Z,55.33
2022-09-12T11:43:07.919Z,55.51
2022-09-12T11:44:08.732Z,55.61
2022-09-12T11:45:09.563Z,54.80
2022-09-12T11:46:10.472Z,53.50
2022-09-12T11:47:11.266Z,55.00
2022-09-12T11:48:12.118Z,55.61
2022-09-12T11:49:12.913Z,55.71
2022-09-12T11:50:13.754Z,55.00
2022-09-12T11:51:14.577Z,54.80
2022-09-12T11:52:15.408Z,54.50
2022-09-12T11:53:16.234Z,55.11
2022-09-12T11:54:17.056Z,55.00
2022-09-12T11:55:17.885Z,57.12
2022-09-12T11:56:18.721Z,55.11
2022-09-12T11:57:19.540Z,54.20
2022-09-12T11:58:20.368Z,54.40
2022-09-12T11:59:21.201Z,54.38
2022-09-12T12:00:22.037Z,55.38
2022-09-12T12:01:22.843Z,56.09
2022-09-12T12:02:23.732Z,56.59
2022-09-12T12:03:24.643Z,56.49
2022-09-12T12:04:25.404Z,55.58
2022-09-12T12:05:26.243Z,54.28
2022-09-12T12:06:27.065Z,55.38
2022-09-12T12:07:27.891Z,55.48
2022-09-12T12:08:28.714Z,57.19
2022-09-12T12:09:29.550Z,57.70
2022-09-12T12:10:30.389Z,58.07
2022-09-12T12:11:31.222Z,57.67
2022-09-12T12:12:32.036Z,56.16
2022-09-12T12:13:32.864Z,56.86
2022-09-12T12:14:33.701Z,57.17
2022-09-12T12:15:34.612Z,56.16
2022-09-12T12:16:35.399Z,56.86
2022-09-12T12:17:36.231Z,56.66
2022-09-12T12:18:37.080Z,57.44
2022-09-12T12:19:37.899Z,55.43
2022-09-12T12:20:38.718Z,54.72
2022-09-12T12:21:39.550Z,55.73
2022-09-12T12:22:40.389Z,54.65
2022-09-12T12:23:41.201Z,56.23
2022-09-12T12:24:42.021Z,55.23
2022-09-12T12:25:42.863Z,54.63
2022-09-12T12:26:43.705Z,54.43
2022-09-12T12:27:44.520Z,54.83
2022-09-12T12:28:45.478Z,54.93
2022-09-12T12:29:46.376Z,55.03
2022-09-12T12:30:47.219Z,56.54
2022-09-12T12:31:48.006Z,56.23
2022-09-12T12:32:48.840Z,54.83
2022-09-12T12:33:49.685Z,54.53
2022-09-12T12:34:50.509Z,55.43
2022-09-12T12:35:51.328Z,55.23
2022-09-12T12:36:52.191Z,54.53
2022-09-12T12:37:52.997Z,55.43
2022-09-12T12:38:53.827Z,55.43
2022-09-12T12:39:54.715Z,55.03
2022-09-12T12:40:55.493Z,53.82
2022-09-12T12:41:56.321Z,53.42
2022-09-12T12:42:57.150Z,54.33
2022-09-12T12:43:57.969Z,54.22
2022-09-12T12:44:58.802Z,54.43
2022-09-12T12:45:59.672Z,53.72
2022-09-12T12:47:00.463Z,54.43
2022-09-12T12:48:04.080Z,54.72
2022-09-12T12:49:03.020Z,54.83
2022-09-12T12:50:02.814Z,55.43
2022-09-12T12:51:03.665Z,54.02
2022-09-12T12:52:04.502Z,54.33
2022-09-12T12:53:05.321Z,54.43
2022-09-12T12:54:09.795Z,54.33
2022-09-12T12:55:07.852Z,55.33
2022-09-12T12:56:07.696Z,54.83
2022-09-12T12:57:08.542Z,55.03
2022-09-12T12:58:09.362Z,54.83
2022-09-12T12:59:10.202Z,54.22
2022-09-12T13:00:11.028Z,54.72
2022-09-12T13:01:11.941Z,54.83
2022-09-12T13:02:12.832Z,54.53
2022-09-12T13:03:13.615Z,54.63